Flight Track Log - Related Links

Times and Time Zones

All times are in EDT time to prevent confusion due to time zone crossing. See the ASQ4209 flight status page for this flight to view local times or setup timezone preferences in your user account.

Time Position Orientation Groundspeed Altitude Reporting Facility
EDT Latitude Longitude Course Direction KTS MPH feet Rate Location/Type
Sun 09:54:01 PM 29.9803 -95.2931 35° Northeast 170 196 700  Level Houston Center
Sun 09:54:32 PM 29.9994 -95.2739 41° Northeast 194 223 1,700 1,500 Climbing Houston Center
Sun 09:55:17 PM 30.0381 -95.2656 11° North 216 249 2,600 1,180 Climbing Houston Center
Sun 09:55:33 PM 30.0653 -95.2586 12° North 267 307 2,900 1,672 Climbing Houston Center
Sun 09:56:18 PM 30.1119 -95.2467 12° North 254 292 4,300 2,060 Climbing Houston Center
Sun 09:56:40 PM 30.1439 -95.2225 33° Northeast 283 326 5,200 1,967 Climbing Houston Center
Sun 09:57:00 PM 30.3589 -95.0329 35° Northeast  Level FlightAware Approximate
Sun 09:57:19 PM 30.1789 -95.1964 33° Northeast 280 322 6,300  Level Houston Center
Sun 09:57:41 PM 30.2122 -95.1681 36° Northeast 287 330 7,200 1,770 Climbing Houston Center
Sun 09:58:00 PM 30.4489 -94.9511 41° Northeast  Level FlightAware Approximate
Sun 09:58:20 PM 30.2450 -95.1428 34° Northeast 289 333 8,100  Level Houston Center
Sun 09:58:42 PM 30.2786 -95.1139 37° Northeast 297 342 9,000 1,770 Climbing Houston Center
Sun 09:59:00 PM 30.5461 -94.8865 35° Northeast  Level FlightAware Approximate
Sun 09:59:21 PM 30.3139 -95.0878 33° Northeast 298 343 9,900  Level Houston Center
Sun 10:00:22 PM 30.3867 -95.0289 35° Northeast 316 364 10,600 541 Climbing Houston Center
Sun 10:01:23 PM 30.4728 -94.9575 36° Northeast 351 404 11,000 195 Climbing Houston Center
Sun 10:02:25 PM 30.5614 -94.8858 35° Northeast 382 440 11,000 146 Level Houston Center
Sun 10:03:26 PM 30.6708 -94.8000 34° Northeast 394 453 11,300 639 Climbing Houston Center
Sun 10:04:27 PM 30.7619 -94.7308 33° Northeast 394 453 12,300 934 Climbing Houston Center
Sun 10:05:28 PM 30.8517 -94.6617 33° Northeast 391 450 13,200 895 Climbing Houston Center
Sun 10:06:21 PM 30.9211 -94.6069 34° Northeast 378 435 14,000 956 Climbing Fort Worth Center
Sun 10:07:21 PM 31.0117 -94.5389 33° Northeast 378 435 15,000 1,000 Climbing Fort Worth Center
Sun 10:08:21 PM 31.1017 -94.4681 34° Northeast 383 441 16,000 1,000 Climbing Fort Worth Center
Sun 10:09:21 PM 31.1942 -94.3972 33° Northeast 383 441 17,000 950 Climbing Fort Worth Center
Sun 10:10:21 PM 31.2842 -94.3264 34° Northeast 383 441 17,900 1,000 Climbing Fort Worth Center
Sun 10:11:21 PM 31.3764 -94.2550 33° Northeast 383 441 19,000 1,000 Climbing Fort Worth Center
Sun 10:12:21 PM 31.4664 -94.1839 34° Northeast 383 441 19,900 850 Climbing Fort Worth Center
Sun 10:13:21 PM 31.5625 -94.1075 34° Northeast 388 447 20,700 1,000 Climbing Fort Worth Center
Sun 10:14:21 PM 31.6669 -94.0306 32° Northeast 393 452 21,900 1,100 Climbing Fort Worth Center
Sun 10:15:21 PM 31.7608 -93.9536 35° Northeast 404 465 22,900 1,000 Climbing Fort Worth Center
Sun 10:16:21 PM 31.8528 -93.8817 34° Northeast 404 465 23,900 950 Climbing Fort Worth Center
Sun 10:17:21 PM 31.9386 -93.8125 34° Northeast 404 465 24,800 900 Climbing Fort Worth Center
Sun 10:18:21 PM 32.0447 -93.7272 34° Northeast 410 472 25,700 850 Climbing Fort Worth Center
Sun 10:19:21 PM 32.1425 -93.6497 34° Northeast 410 472 26,500 800 Climbing Fort Worth Center
Sun 10:20:21 PM 32.2300 -93.5725 37° Northeast 420 483 27,300 800 Climbing Fort Worth Center
Sun 10:21:21 PM 32.3358 -93.4894 34° Northeast 420 483 28,100 1,000 Climbing Fort Worth Center
Sun 10:22:21 PM 32.4214 -93.4217 34° Northeast 414 476 29,300 1,150 Climbing Fort Worth Center
Sun 10:23:21 PM 32.5192 -93.3433 34° Northeast 414 476 30,400 1,050 Climbing Fort Worth Center
Sun 10:24:21 PM 32.6147 -93.2653 35° Northeast 409 471 31,400 1,050 Climbing Fort Worth Center
Sun 10:25:21 PM 32.7103 -93.1867 35° Northeast 409 471 32,500 850 Climbing Fort Worth Center
Sun 10:26:21 PM 32.8078 -93.1103 33° Northeast 409 471 33,100 800 Climbing Fort Worth Center
Sun 10:27:21 PM 32.9033 -93.0317 35° Northeast 414 476 34,100 950 Climbing Fort Worth Center
Sun 10:28:21 PM 33.0025 -92.9500 35° Northeast 414 476 35,000 450 Climbing Fort Worth Center
Sun 10:29:21 PM 33.1039 -92.8681 34° Northeast 419 482 35,000  Level Fort Worth Center
Sun 10:30:21 PM 33.2075 -92.7858 34° Northeast 434 499 35,000  Level Fort Worth Center
Sun 10:32:21 PM 33.3769 -92.5639 48° Northeast 450 518 35,000  Level Memphis Center
Sun 10:33:21 PM 33.4583 -92.4464 50° Northeast 456 525 35,000  Level Memphis Center
Sun 10:34:21 PM 33.5311 -92.3283 53° Northeast 451 519 35,000  Level Memphis Center
Sun 10:35:21 PM 33.6103 -92.2081 52° Northeast 451 519 35,000  Level Memphis Center
Sun 10:36:21 PM 33.6892 -92.0872 52° Northeast 458 527 35,000  Level Memphis Center
Sun 10:37:21 PM 33.7658 -91.9639 53° Northeast 458 527 35,000  Level Memphis Center
Sun 10:38:21 PM 33.8467 -91.8428 51° Northeast 458 527 35,000  Level Memphis Center
Sun 10:39:21 PM 33.9294 -91.7217 50° Northeast 458 527 35,000  Level Memphis Center
Sun 10:40:21 PM 34.0081 -91.5875 55° Northeast 453 521 35,000  Level Memphis Center
Sun 10:41:21 PM 34.0886 -91.4683 51° Northeast 452 520 35,000  Level Memphis Center
Sun 10:42:21 PM 34.1625 -91.3486 53° Northeast 452 520 35,000  Level Memphis Center
Sun 10:43:21 PM 34.2406 -91.2264 52° Northeast 452 520 35,000  Level Memphis Center
Sun 10:44:21 PM 34.3144 -91.1067 53° Northeast 452 520 35,000  Level Memphis Center
Sun 10:45:21 PM 34.3925 -90.9864 52° Northeast 454 522 35,000  Level Memphis Center
Sun 10:46:21 PM 34.4472 -90.8458 65° Northeast 454 522 35,000  Level Memphis Center
Sun 10:47:21 PM 34.4853 -90.6947 73° East 458 527 35,000  Level Memphis Center
Sun 10:48:21 PM 34.5169 -90.5461 75° East 458 527 35,000  Level Memphis Center
Sun 10:49:21 PM 34.5503 -90.3975 75° East 452 520 35,000  Level Memphis Center
Sun 10:50:21 PM 34.5797 -90.2639 75° East 452 520 35,000  Level Memphis Center
Sun 10:51:21 PM 34.6128 -90.1175 75° East 452 520 35,000  Level Memphis Center
Sun 10:52:21 PM 34.6458 -89.9658 75° East 458 527 35,000  Level Memphis Center
Sun 10:53:21 PM 34.6764 -89.8167 76° East 453 521 35,000  Level Memphis Center
Sun 10:54:21 PM 34.7111 -89.6447 76° East 460 529 35,000  Level Memphis Center
Sun 10:55:21 PM 34.7456 -89.5003 74° East 454 522 35,000  Level Memphis Center
Sun 10:56:21 PM 34.7800 -89.3508 74° East 454 522 35,000  Level Memphis Center
Sun 10:57:21 PM 34.8081 -89.2239 75° East 448 516 35,000  Level Memphis Center
Sun 10:58:21 PM 34.8400 -89.0769 75° East 443 510 35,000  Level Memphis Center
Sun 10:59:21 PM 34.8719 -88.9319 75° East 438 504 35,000  Level Memphis Center
Sun 11:00:21 PM 34.9033 -88.7819 76° East 443 510 35,000  Level Memphis Center
Sun 11:01:21 PM 34.9347 -88.6347 75° East 443 510 35,000  Level Memphis Center
Sun 11:03:21 PM 35.0011 -88.3264 75° East 442 509 35,000  Level Memphis Center
Sun 11:04:21 PM 35.0319 -88.1761 76° East 447 514 35,000  Level Memphis Center
Sun 11:05:21 PM 35.0625 -88.0231 76° East 461 531 35,000  Level Memphis Center
Sun 11:06:21 PM 35.0950 -87.8700 75° East 455 524 35,000  Level Memphis Center
Sun 11:07:21 PM 35.1233 -87.7269 76° East 447 514 35,000  Level Memphis Center
Sun 11:08:21 PM 35.1517 -87.5914 76° East 442 509 35,000  Level Memphis Center
Sun 11:10:56 PM 35.2292 -87.1942 76° East 481 554 35,000  Level Atlanta Center
Sun 11:11:56 PM 35.2603 -87.0428 76° East 456 525 35,000  Level Atlanta Center
Sun 11:12:56 PM 35.2908 -86.8911 76° East 447 514 35,000 -650 Level Atlanta Center
Sun 11:13:56 PM 35.3194 -86.7369 77° East 452 520 33,700 -1,650 Descending Atlanta Center
Sun 11:14:56 PM 35.3500 -86.5800 77° East 462 532 31,700 -2,000 Descending Atlanta Center
Sun 11:15:56 PM 35.3739 -86.4253 79° East 468 539 29,700 -2,000 Descending Atlanta Center
Sun 11:16:56 PM 35.4039 -86.2658 77° East 468 539 27,700 -2,000 Descending Atlanta Center
Sun 11:17:56 PM 35.4339 -86.1083 77° East 468 539 25,700 -1,550 Descending Atlanta Center
Sun 11:18:56 PM 35.4636 -85.9536 77° East 468 539 24,600 -850 Descending Atlanta Center
Sun 11:19:56 PM 35.4908 -85.8014 78° East 468 539 24,000 -1,100 Descending Atlanta Center
Sun 11:20:56 PM 35.5200 -85.6539 76° East 456 525 22,400 -1,800 Descending Atlanta Center
Sun 11:21:56 PM 35.5469 -85.5064 77° East 445 512 20,400 -2,000 Descending Atlanta Center
Sun 11:22:56 PM 35.5714 -85.3664 78° East 433 498 18,400 -1,900 Descending Atlanta Center
Sun 11:23:56 PM 35.5956 -85.2314 78° East 414 476 16,600 -1,900 Descending Atlanta Center
Sun 11:24:56 PM 35.6197 -85.1014 77° East 404 465 14,600 -2,050 Descending Atlanta Center
Sun 11:25:56 PM 35.6439 -84.9586 78° East 393 452 12,500 -1,550 Descending Atlanta Center
Sun 11:26:56 PM 35.6678 -84.8311 77° East 388 447 11,500 -750 Descending Atlanta Center
Sun 11:27:56 PM 35.6894 -84.7061 78° East 383 441 11,000 -250 Descending Atlanta Center
Sun 11:28:56 PM 35.7108 -84.5808 78° East 378 435 11,000 -450 Level Atlanta Center
Sun 11:29:56 PM 35.7133 -84.4761 88° East 344 396 10,100 -1,900 Descending Atlanta Center
Sun 11:30:56 PM 35.7011 -84.3814 99° East 304 350 7,200 -2,400 Descending Atlanta Center
Sun 11:31:56 PM 35.6908 -84.2894 98° East 284 327 5,300 -1,900 Descending Atlanta Center
Sun 11:32:56 PM 35.6994 -84.2025 83° East 264 304 3,400 -1,300 Descending Atlanta Center
Sun 11:33:56 PM 35.7203 -84.1231 72° East 252 290 2,700 -700 Descending Atlanta Center

Login

Don't have an account? Register now (free) for customized features, flight alerts, and more!